Time;durP1;ratioP1;P1;durP2;ratioP2;P2;SDS_P1;SDS_P2;PMS_P1;PMS_P2;Temp;Humidity;BMP_temperature;BMP_pressure;BME280_temperature;BME280_humidity;BME280_pressure;Samples;Min_cycle;Max_cycle;Signal;HPM_P1;HPM_P2
2023/12/16 00:02:25;;;;;;;29.60;10.13;;;6.10;99.90;;;;;;4957819;28;20552;-56
2023/12/16 00:04:51;;;;;;;26.43;10.37;;;6.10;99.90;;;;;;4954251;29;20442;-57
2023/12/16 00:07:18;;;;;;;26.67;9.57;;;6.10;99.90;;;;;;4954922;28;20446;-56
2023/12/16 00:09:45;;;;;;;26.30;11.43;;;6.10;99.90;;;;;;4953984;28;20533;-56
2023/12/16 00:12:11;;;;;;;28.30;10.23;;;6.10;99.90;;;;;;4954822;28;20521;-57
2023/12/16 00:14:38;;;;;;;27.03;10.57;;;6.10;99.90;;;;;;4957387;28;20454;-57
2023/12/16 00:17:06;;;;;;;25.93;10.70;;;6.10;99.90;;;;;;4956646;28;20443;-56
2023/12/16 00:19:32;;;;;;;23.13;9.43;;;6.10;99.90;;;;;;4957455;28;21031;-56
2023/12/16 00:21:59;;;;;;;26.17;10.97;;;6.10;99.90;;;;;;4954729;28;20442;-56
2023/12/16 00:24:25;;;;;;;23.87;9.60;;;6.10;99.90;;;;;;4957837;28;20446;-57
2023/12/16 00:26:53;;;;;;;28.07;9.30;;;6.10;99.90;;;;;;4955734;28;20450;-57
2023/12/16 00:29:20;;;;;;;22.47;9.10;;;6.10;99.90;;;;;;4954348;28;20510;-57
2023/12/16 00:31:47;;;;;;;23.83;10.60;;;6.10;99.90;;;;;;4953887;28;20976;-56
2023/12/16 00:34:15;;;;;;;23.07;10.37;;;6.20;99.90;;;;;;4950838;29;20486;-56
2023/12/16 00:36:42;;;;;;;34.60;10.70;;;6.20;99.90;;;;;;4959378;28;20437;-55
2023/12/16 00:39:09;;;;;;;37.00;11.23;;;6.10;99.90;;;;;;4953454;28;20473;-55
2023/12/16 00:41:36;;;;;;;23.03;10.27;;;6.20;99.90;;;;;;4958116;28;20449;-57
2023/12/16 00:44:02;;;;;;;28.23;11.40;;;6.20;99.90;;;;;;4952939;28;20727;-56
2023/12/16 00:46:29;;;;;;;21.87;10.57;;;6.20;99.90;;;;;;4956237;28;21581;-57
2023/12/16 00:48:55;;;;;;;30.93;12.43;;;6.10;99.90;;;;;;4954247;28;20478;-56
2023/12/16 00:51:23;;;;;;;26.27;11.90;;;6.10;99.90;;;;;;4955968;28;20520;-56
2023/12/16 00:53:50;;;;;;;25.60;10.83;;;6.10;99.90;;;;;;4955740;28;20534;-56
2023/12/16 00:56:16;;;;;;;30.90;11.97;;;6.10;99.90;;;;;;4960556;28;20512;-56
2023/12/16 00:58:43;;;;;;;30.47;11.40;;;6.10;99.90;;;;;;4952101;28;20475;-56
2023/12/16 01:01:10;;;;;;;31.07;12.17;;;6.10;99.90;;;;;;4960348;28;20501;-56
2023/12/16 01:03:37;;;;;;;26.60;12.20;;;6.10;99.90;;;;;;4955781;28;20442;-56
2023/12/16 01:06:04;;;;;;;27.53;11.80;;;6.10;99.90;;;;;;4951868;28;20941;-56
2023/12/16 01:08:33;;;;;;;28.27;11.43;;;6.10;99.90;;;;;;4953654;28;20968;-56
2023/12/16 01:11:00;;;;;;;24.50;9.97;;;6.10;99.90;;;;;;4955914;28;20521;-57
2023/12/16 01:13:27;;;;;;;33.47;11.53;;;6.10;99.90;;;;;;4953973;28;20486;-56
2023/12/16 01:15:53;;;;;;;23.27;10.87;;;6.10;99.90;;;;;;4953800;28;20509;-56
2023/12/16 01:18:20;;;;;;;31.80;13.07;;;6.10;99.90;;;;;;4953158;28;20470;-56
2023/12/16 01:20:46;;;;;;;25.53;10.90;;;6.10;99.90;;;;;;4953729;28;20851;-56
2023/12/16 01:23:12;;;;;;;29.47;11.10;;;6.10;99.90;;;;;;4953609;28;20450;-56
2023/12/16 01:25:40;;;;;;;26.83;13.30;;;6.00;99.90;;;;;;4956522;28;20445;-56
2023/12/16 01:28:06;;;;;;;26.50;10.83;;;6.10;99.90;;;;;;4956961;28;20784;-56
2023/12/16 01:30:33;;;;;;;24.87;10.97;;;6.10;99.90;;;;;;4953715;28;20494;-56
2023/12/16 01:33:00;;;;;;;36.30;10.60;;;6.20;99.90;;;;;;4954338;28;21052;-56
2023/12/16 01:35:26;;;;;;;29.10;10.60;;;6.10;99.90;;;;;;4959439;28;20881;-57
2023/12/16 01:37:53;;;;;;;19.83;10.10;;;6.10;99.90;;;;;;4953432;28;20470;-56
2023/12/16 01:40:19;;;;;;;40.00;12.23;;;6.10;99.90;;;;;;4953385;28;20496;-56
2023/12/16 01:42:48;;;;;;;38.47;11.70;;;6.20;99.90;;;;;;4956341;28;20497;-56
2023/12/16 01:45:16;;;;;;;25.10;10.73;;;6.20;99.90;;;;;;4959428;28;20446;-56
2023/12/16 01:47:43;;;;;;;23.23;11.00;;;6.20;99.90;;;;;;4952974;28;20450;-57
2023/12/16 01:50:12;;;;;;;26.03;11.33;;;6.20;99.90;;;;;;4953288;28;20453;-55
2023/12/16 01:52:40;;;;;;;32.03;11.03;;;6.20;99.90;;;;;;4952818;28;20451;-56
2023/12/16 01:55:07;;;;;;;31.07;11.23;;;6.20;99.90;;;;;;4953156;29;20442;-57
2023/12/16 01:57:35;;;;;;;23.70;9.73;;;6.20;99.90;;;;;;4953573;28;20497;-55
2023/12/16 02:00:04;;;;;;;28.10;12.67;;;6.20;99.90;;;;;;4953293;28;20505;-56
2023/12/16 02:02:32;;;;;;;21.20;9.80;;;6.30;99.90;;;;;;4959499;28;20439;-56
2023/12/16 02:05:00;;;;;;;24.13;10.10;;;6.20;99.90;;;;;;4958273;28;20952;-55
2023/12/16 02:07:26;;;;;;;20.47;9.60;;;6.30;99.90;;;;;;4952942;28;20497;-56
2023/12/16 02:09:55;;;;;;;26.30;10.20;;;6.30;99.90;;;;;;4953154;28;20446;-56
2023/12/16 02:12:21;;;;;;;35.00;10.00;;;6.30;99.90;;;;;;4954235;28;20451;-56
2023/12/16 02:14:48;;;;;;;24.03;10.00;;;6.30;99.90;;;;;;4954800;28;20561;-56
2023/12/16 02:17:16;;;;;;;27.00;9.17;;;6.30;99.90;;;;;;4956558;28;20454;-56
2023/12/16 02:19:47;;;;;;;27.63;11.60;;;6.30;99.90;;;;;;4949595;28;20472;-56
2023/12/16 02:22:13;;;;;;;19.80;9.00;;;6.30;99.90;;;;;;4954194;28;20442;-57
2023/12/16 02:24:42;;;;;;;22.90;10.30;;;6.30;99.90;;;;;;4956780;28;20505;-55
2023/12/16 02:27:09;;;;;;;27.50;11.27;;;6.30;99.90;;;;;;4956655;28;20952;-56
2023/12/16 02:29:35;;;;;;;29.87;9.93;;;6.30;99.90;;;;;;4959559;28;20481;-56
2023/12/16 02:32:02;;;;;;;31.50;9.67;;;6.30;99.90;;;;;;4958297;28;20478;-56
2023/12/16 02:34:30;;;;;;;25.70;10.00;;;6.30;99.90;;;;;;4962926;28;21099;-56
2023/12/16 02:36:56;;;;;;;27.63;10.80;;;6.30;99.90;;;;;;4961751;28;20458;-56
2023/12/16 02:39:23;;;;;;;22.90;9.27;;;6.30;99.90;;;;;;4956466;28;20886;-56
2023/12/16 02:41:51;;;;;;;17.10;8.60;;;6.30;99.90;;;;;;4961060;28;20469;-56
2023/12/16 02:44:18;;;;;;;15.87;8.47;;;6.20;99.90;;;;;;4956136;28;20482;-57
2023/12/16 02:46:44;;;;;;;18.97;8.73;;;6.20;99.90;;;;;;4956025;28;20454;-57
2023/12/16 02:49:11;;;;;;;23.17;9.43;;;6.20;99.90;;;;;;4964096;28;20478;-56
2023/12/16 02:51:37;;;;;;;19.33;8.73;;;6.20;99.90;;;;;;4959250;28;20508;-56
2023/12/16 02:54:04;;;;;;;25.60;9.20;;;6.20;99.90;;;;;;4958281;28;20486;-57
2023/12/16 02:56:30;;;;;;;26.20;9.60;;;6.20;99.90;;;;;;4955182;28;20450;-56
2023/12/16 02:58:58;;;;;;;21.97;8.50;;;6.20;99.90;;;;;;4955973;28;20524;-56
2023/12/16 03:01:25;;;;;;;26.67;9.90;;;6.10;99.90;;;;;;4956358;28;21328;-56
2023/12/16 03:03:52;;;;;;;16.60;8.70;;;6.10;99.90;;;;;;4956099;28;20443;-56
2023/12/16 03:06:18;;;;;;;32.40;9.27;;;6.20;99.90;;;;;;4955383;28;20474;-56
2023/12/16 03:08:45;;;;;;;19.90;8.30;;;6.10;99.90;;;;;;4956159;28;20894;-56
2023/12/16 03:11:11;;;;;;;16.50;8.20;;;6.10;99.90;;;;;;4955970;28;20473;-57
2023/12/16 03:13:38;;;;;;;23.30;7.40;;;6.10;99.90;;;;;;4956060;28;20493;-57
2023/12/16 03:16:07;;;;;;;25.40;7.80;;;6.10;99.90;;;;;;4955384;28;20506;-57
2023/12/16 03:18:33;;;;;;;20.60;7.73;;;6.10;99.90;;;;;;4955853;28;20470;-56
2023/12/16 03:21:00;;;;;;;25.37;8.70;;;6.10;99.90;;;;;;4951048;28;20472;-56
2023/12/16 03:23:26;;;;;;;24.80;7.90;;;6.10;99.90;;;;;;4955888;28;20446;-57
2023/12/16 03:25:53;;;;;;;25.10;8.40;;;6.10;99.90;;;;;;4955848;28;20443;-57
2023/12/16 03:28:19;;;;;;;20.03;7.23;;;6.10;99.90;;;;;;4954603;28;20474;-57
2023/12/16 03:30:46;;;;;;;19.90;8.37;;;6.10;99.90;;;;;;4957199;28;20493;-56
2023/12/16 03:33:14;;;;;;;22.97;8.20;;;6.10;99.90;;;;;;4954751;28;20446;-56
2023/12/16 03:35:41;;;;;;;21.30;8.30;;;6.10;99.90;;;;;;4954376;28;20940;-56
2023/12/16 03:38:07;;;;;;;20.57;7.50;;;6.10;99.90;;;;;;4955373;28;20466;-56
2023/12/16 03:40:34;;;;;;;24.00;8.13;;;6.10;99.90;;;;;;4955421;28;20446;-56
2023/12/16 03:43:00;;;;;;;21.33;6.73;;;6.10;99.90;;;;;;4955619;28;20455;-56
2023/12/16 03:45:27;;;;;;;14.07;6.63;;;6.10;99.90;;;;;;4955352;28;20948;-56
2023/12/16 03:47:54;;;;;;;22.83;9.83;;;6.10;99.90;;;;;;4955316;29;20473;-56
2023/12/16 03:50:21;;;;;;;23.80;8.80;;;6.10;99.90;;;;;;4954905;28;20462;-56
2023/12/16 03:52:48;;;;;;;23.77;7.73;;;6.10;99.90;;;;;;4954812;28;20933;-56
2023/12/16 03:55:15;;;;;;;27.77;9.17;;;6.10;99.90;;;;;;4960466;28;20556;-57
2023/12/16 03:57:41;;;;;;;31.53;8.37;;;6.10;99.90;;;;;;4950861;28;20505;-57
2023/12/16 04:00:09;;;;;;;24.77;8.50;;;6.10;99.90;;;;;;4955481;28;20438;-56
2023/12/16 04:02:35;;;;;;;25.43;8.77;;;6.10;99.90;;;;;;4954269;28;20450;-58
2023/12/16 04:05:02;;;;;;;20.77;8.10;;;6.10;99.90;;;;;;4954810;28;20489;-56
2023/12/16 04:07:30;;;;;;;23.33;9.00;;;6.20;99.90;;;;;;4954683;28;20502;-56
2023/12/16 04:09:56;;;;;;;19.73;8.60;;;6.20;99.90;;;;;;4955094;28;20443;-56
2023/12/16 04:12:23;;;;;;;26.97;8.23;;;6.20;99.90;;;;;;4963384;28;20446;-57
2023/12/16 04:14:50;;;;;;;27.17;10.10;;;6.20;99.90;;;;;;4955214;28;21071;-57
2023/12/16 04:17:16;;;;;;;19.07;8.83;;;6.20;99.90;;;;;;4959183;28;20497;-56
2023/12/16 04:19:50;;;;;;;25.83;10.33;;;6.30;99.90;;;;;;4954685;28;20459;-57
2023/12/16 04:22:17;;;;;;;21.70;10.20;;;6.30;99.90;;;;;;4954746;28;20457;-56
2023/12/16 04:24:46;;;;;;;25.10;10.47;;;6.40;99.90;;;;;;4950749;29;20998;-56
2023/12/16 04:27:13;;;;;;;25.77;11.10;;;6.40;99.90;;;;;;4951851;28;21007;-57
2023/12/16 04:29:39;;;;;;;26.23;10.80;;;6.30;99.90;;;;;;4954432;28;20470;-56
2023/12/16 04:32:06;;;;;;;30.80;12.63;;;6.40;99.90;;;;;;4954411;28;21004;-57
2023/12/16 04:34:33;;;;;;;30.90;11.80;;;6.40;99.90;;;;;;4952697;28;20890;-56
2023/12/16 04:37:00;;;;;;;31.67;11.87;;;6.40;99.90;;;;;;4954598;28;20450;-56
2023/12/16 04:39:26;;;;;;;19.70;11.07;;;6.40;99.90;;;;;;4948224;28;20521;-57
2023/12/16 04:41:54;;;;;;;26.87;11.60;;;6.40;99.90;;;;;;4954705;28;20450;-56
2023/12/16 04:44:21;;;;;;;29.00;13.60;;;6.40;99.90;;;;;;4954260;28;20864;-57
2023/12/16 04:46:48;;;;;;;30.20;13.27;;;6.40;99.90;;;;;;4954739;28;20455;-57
2023/12/16 04:49:14;;;;;;;40.43;13.87;;;6.40;99.90;;;;;;4954002;28;20478;-56
2023/12/16 04:51:41;;;;;;;32.07;12.17;;;6.40;99.90;;;;;;4954462;28;20450;-56
2023/12/16 04:54:07;;;;;;;33.50;13.00;;;6.40;99.90;;;;;;4954233;28;20486;-56
2023/12/16 04:56:34;;;;;;;41.27;13.90;;;6.40;99.90;;;;;;4954315;28;20446;-57
2023/12/16 04:59:02;;;;;;;36.13;13.03;;;6.40;99.90;;;;;;4954085;28;20466;-57
2023/12/16 05:01:29;;;;;;;34.73;13.27;;;6.40;99.90;;;;;;4957406;28;20572;-56
2023/12/16 05:03:55;;;;;;;32.67;13.07;;;6.40;96.10;;;;;;4953702;28;20446;-56
2023/12/16 05:06:22;;;;;;;37.60;14.07;;;6.40;87.60;;;;;;4954506;28;20453;-56
2023/12/16 05:08:49;;;;;;;27.10;12.43;;;6.40;75.30;;;;;;4953926;28;20529;-56
2023/12/16 05:11:15;;;;;;;28.27;12.57;;;6.40;76.70;;;;;;4954051;28;20454;-57
2023/12/16 05:13:43;;;;;;;30.17;12.13;;;6.30;20.30;;;;;;4956052;28;20505;-56
2023/12/16 05:16:11;;;;;;;35.20;12.93;;;6.30;20.00;;;;;;4953631;28;20490;-56
2023/12/16 05:18:38;;;;;;;35.83;15.20;;;6.30;77.20;;;;;;4953675;28;20529;-56
2023/12/16 05:21:05;;;;;;;33.83;14.20;;;6.30;76.50;;;;;;4953839;29;20482;-56
2023/12/16 05:23:31;;;;;;;35.10;14.00;;;6.30;20.20;;;;;;4953802;28;20450;-56
2023/12/16 05:25:57;;;;;;;23.93;12.37;;;6.20;85.60;;;;;;4953689;28;20464;-57
2023/12/16 05:28:24;;;;;;;30.40;12.97;;;6.30;77.10;;;;;;4953860;28;20242;-58
2023/12/16 05:30:50;;;;;;;33.70;13.60;;;6.40;21.50;;;;;;4953529;28;20489;-56
2023/12/16 05:33:18;;;;;;;37.93;14.00;;;6.30;24.90;;;;;;4946651;28;20549;-56
2023/12/16 05:35:45;;;;;;;23.63;12.37;;;6.30;26.70;;;;;;4948814;28;20486;-56
2023/12/16 05:38:12;;;;;;;32.50;12.47;;;6.20;28.20;;;;;;4953074;28;20521;-57
2023/12/16 05:40:38;;;;;;;24.57;12.63;;;6.20;27.40;;;;;;4953508;28;20513;-56
2023/12/16 05:43:05;;;;;;;32.47;11.53;;;6.10;27.70;;;;;;4953522;28;20506;-56
2023/12/16 05:45:31;;;;;;;37.27;13.00;;;6.00;26.60;;;;;;4953203;28;20451;-56
2023/12/16 05:47:58;;;;;;;28.13;12.30;;;5.90;25.70;;;;;;4953508;28;20471;-56
2023/12/16 05:50:26;;;;;;;24.60;12.00;;;5.90;24.00;;;;;;4956836;28;20446;-56
2023/12/16 05:52:52;;;;;;;23.37;11.53;;;5.90;78.10;;;;;;4959901;28;20446;-57
2023/12/16 05:55:19;;;;;;;24.77;12.10;;;5.80;21.40;;;;;;4959474;28;20541;-57
2023/12/16 05:57:45;;;;;;;33.23;11.90;;;5.90;75.00;;;;;;4959656;28;20466;-57
2023/12/16 06:00:13;;;;;;;22.80;12.30;;;5.90;99.90;;;;;;4959696;28;20853;-56
2023/12/16 06:02:40;;;;;;;24.87;10.53;;;5.90;96.10;;;;;;4959880;28;20446;-56
2023/12/16 06:05:08;;;;;;;28.10;11.33;;;5.80;93.90;;;;;;4957690;28;20873;-56
2023/12/16 06:07:36;;;;;;;23.73;11.30;;;5.90;99.90;;;;;;4958573;28;20446;-56
2023/12/16 06:10:02;;;;;;;28.47;12.07;;;5.90;99.90;;;;;;4954004;28;20826;-56
2023/12/16 06:12:29;;;;;;;23.00;12.57;;;5.90;99.90;;;;;;4958909;28;20477;-56
2023/12/16 06:14:56;;;;;;;27.87;11.37;;;6.00;99.90;;;;;;4958055;28;20486;-56
2023/12/16 06:17:22;;;;;;;20.83;10.83;;;6.00;99.90;;;;;;4959694;28;20500;-56
2023/12/16 06:19:49;;;;;;;25.50;11.23;;;6.00;99.90;;;;;;4957910;28;20523;-56
2023/12/16 06:22:15;;;;;;;26.57;11.43;;;6.00;99.90;;;;;;4959835;28;20871;-57
2023/12/16 06:24:43;;;;;;;24.43;10.40;;;6.00;99.90;;;;;;4959288;28;20497;-56
2023/12/16 06:27:10;;;;;;;26.67;11.37;;;6.10;99.90;;;;;;4956304;28;20591;-56
2023/12/16 06:29:36;;;;;;;24.60;10.60;;;6.00;98.50;;;;;;4959274;28;20533;-56
2023/12/16 06:32:03;;;;;;;28.80;12.50;;;6.00;91.10;;;;;;4959558;28;20446;-56
2023/12/16 06:34:30;;;;;;;24.13;10.47;;;6.10;90.70;;;;;;4959387;28;20482;-56
2023/12/16 06:36:56;;;;;;;21.23;10.70;;;6.10;83.60;;;;;;4959371;28;20446;-57
2023/12/16 06:39:23;;;;;;;22.80;10.30;;;6.10;22.20;;;;;;4962538;28;20462;-56
2023/12/16 06:41:51;;;;;;;25.00;9.90;;;6.10;22.00;;;;;;4966199;28;20446;-57
2023/12/16 06:44:18;;;;;;;26.57;10.47;;;6.10;23.90;;;;;;4959380;28;20819;-57
2023/12/16 06:46:44;;;;;;;26.93;9.20;;;6.10;26.70;;;;;;4951421;28;20494;-57
2023/12/16 06:49:11;;;;;;;25.20;11.03;;;6.10;28.50;;;;;;4959457;28;20462;-56
2023/12/16 06:51:37;;;;;;;23.83;9.40;;;6.10;29.10;;;;;;4959756;28;20446;-56
2023/12/16 06:54:04;;;;;;;33.70;11.00;;;6.10;32.50;;;;;;4958949;28;20450;-57
2023/12/16 06:56:31;;;;;;;29.27;10.87;;;6.10;36.60;;;;;;4959392;28;20560;-56
2023/12/16 06:58:59;;;;;;;30.90;11.47;;;6.20;37.70;;;;;;4966288;28;20470;-57
2023/12/16 07:01:26;;;;;;;23.13;10.87;;;6.10;37.90;;;;;;4957043;28;20446;-57
2023/12/16 07:03:52;;;;;;;19.03;9.50;;;6.10;37.70;;;;;;4956194;28;20450;-57
2023/12/16 07:06:20;;;;;;;26.30;10.27;;;6.20;37.80;;;;;;4952856;28;20482;-57
2023/12/16 07:08:46;;;;;;;24.53;10.97;;;6.20;38.90;;;;;;4955784;28;20827;-57
2023/12/16 07:11:13;;;;;;;19.70;9.47;;;6.20;41.30;;;;;;4956203;28;20505;-57
2023/12/16 07:13:40;;;;;;;20.07;9.13;;;6.30;43.30;;;;;;4956125;28;20447;-58
2023/12/16 07:16:09;;;;;;;27.50;9.47;;;6.20;46.30;;;;;;4961664;28;20564;-57
2023/12/16 07:18:36;;;;;;;27.17;10.40;;;6.20;51.50;;;;;;4957783;28;20508;-57
2023/12/16 07:21:06;;;;;;;18.13;8.30;;;6.20;52.00;;;;;;4956525;28;20458;-57
2023/12/16 07:23:33;;;;;;;16.83;8.63;;;6.20;54.60;;;;;;4956313;28;20442;-56
2023/12/16 07:26:00;;;;;;;18.70;8.50;;;6.30;58.60;;;;;;4960249;28;20473;-56
2023/12/16 07:28:27;;;;;;;18.47;8.30;;;6.30;64.30;;;;;;4955494;28;20474;-56
2023/12/16 07:30:53;;;;;;;19.13;8.07;;;6.30;68.40;;;;;;4957619;28;20446;-56
2023/12/16 07:33:21;;;;;;;24.93;10.77;;;6.40;72.10;;;;;;4963550;28;20497;-56
2023/12/16 07:35:48;;;;;;;23.97;8.70;;;6.40;70.70;;;;;;4948705;28;20935;-57
2023/12/16 07:38:14;;;;;;;20.07;8.07;;;6.40;74.00;;;;;;4955630;28;20470;-57
2023/12/16 07:40:41;;;;;;;19.97;7.77;;;6.40;76.30;;;;;;4962755;28;20446;-56
2023/12/16 07:43:07;;;;;;;23.20;8.10;;;6.40;79.40;;;;;;4955706;29;20499;-57
2023/12/16 07:45:36;;;;;;;18.47;7.30;;;6.40;79.40;;;;;;4955310;28;20932;-58
2023/12/16 07:48:02;;;;;;;23.60;8.60;;;6.40;84.20;;;;;;4956033;28;20846;-56
2023/12/16 07:50:30;;;;;;;26.33;8.03;;;6.40;84.60;;;;;;4947292;28;20875;-55
2023/12/16 07:52:57;;;;;;;18.97;7.20;;;6.40;86.10;;;;;;4955403;28;20450;-57
2023/12/16 07:55:27;;;;;;;19.10;9.10;;;6.40;88.40;;;;;;4963037;28;20541;-56
2023/12/16 07:57:53;;;;;;;19.00;9.40;;;6.50;90.70;;;;;;4962214;28;20477;-55
2023/12/16 08:00:20;;;;;;;12.87;6.30;;;6.50;93.60;;;;;;4955418;29;20450;-56
2023/12/16 08:02:47;;;;;;;21.70;8.03;;;6.50;97.50;;;;;;4955065;28;20446;-56
2023/12/16 08:05:14;;;;;;;22.57;8.87;;;6.50;97.60;;;;;;4953635;28;20439;-56
2023/12/16 08:07:45;;;;;;;20.47;7.40;;;6.50;99.90;;;;;;4955596;28;20521;-56
2023/12/16 08:10:11;;;;;;;22.40;7.67;;;6.50;99.90;;;;;;4955136;28;20478;-56
2023/12/16 08:12:38;;;;;;;15.77;6.90;;;6.50;99.90;;;;;;4954382;28;20483;-56
2023/12/16 08:15:06;;;;;;;22.87;7.50;;;6.50;99.90;;;;;;4955261;28;20482;-58
2023/12/16 08:17:32;;;;;;;23.47;6.60;;;6.50;99.90;;;;;;4954407;28;20455;-56
2023/12/16 08:19:59;;;;;;;16.13;6.37;;;6.60;99.90;;;;;;4954957;28;20501;-56
2023/12/16 08:22:26;;;;;;;14.03;5.63;;;6.60;99.90;;;;;;4954770;28;20474;-57
2023/12/16 08:24:54;;;;;;;21.60;7.13;;;6.60;99.90;;;;;;4954479;28;20928;-56
2023/12/16 08:27:21;;;;;;;15.57;6.80;;;6.60;99.90;;;;;;4954601;28;20526;-56
2023/12/16 08:29:47;;;;;;;12.13;6.40;;;6.60;99.90;;;;;;4954399;28;20470;-56
2023/12/16 08:32:14;;;;;;;14.23;6.10;;;6.70;99.90;;;;;;4955581;28;20875;-56
2023/12/16 08:34:40;;;;;;;11.00;5.70;;;6.70;99.90;;;;;;4954331;28;20446;-57
2023/12/16 08:37:07;;;;;;;15.63;6.50;;;6.70;99.90;;;;;;4954484;28;20561;-58
2023/12/16 08:39:34;;;;;;;17.30;7.47;;;6.70;99.90;;;;;;4954135;28;20470;-56
2023/12/16 08:42:02;;;;;;;18.87;7.30;;;6.80;99.90;;;;;;4954390;28;20509;-57
2023/12/16 08:44:28;;;;;;;15.67;6.23;;;6.80;99.90;;;;;;4954306;28;20501;-57
2023/12/16 08:46:55;;;;;;;15.87;6.20;;;6.90;99.90;;;;;;4954151;28;20442;-57
2023/12/16 08:49:21;;;;;;;17.33;6.63;;;6.90;99.90;;;;;;4955294;28;20518;-57
2023/12/16 08:51:48;;;;;;;21.23;7.23;;;6.90;99.90;;;;;;4954200;28;20961;-57
2023/12/16 08:54:15;;;;;;;18.83;6.30;;;7.00;99.90;;;;;;4954144;29;20546;-57
2023/12/16 08:56:43;;;;;;;17.30;6.77;;;7.00;99.90;;;;;;4953999;28;20514;-57
2023/12/16 08:59:11;;;;;;;24.57;6.87;;;7.00;99.90;;;;;;4953917;28;20541;-57
2023/12/16 09:01:38;;;;;;;20.93;7.03;;;7.00;99.90;;;;;;4954231;28;20454;-58
2023/12/16 09:04:04;;;;;;;21.07;6.27;;;7.00;99.90;;;;;;4953719;28;20999;-57
2023/12/16 09:06:31;;;;;;;17.23;6.40;;;7.00;99.90;;;;;;4954073;28;20443;-57
2023/12/16 09:09:01;;;;;;;15.83;6.60;;;7.00;99.90;;;;;;4954003;28;20889;-57
2023/12/16 09:11:28;;;;;;;13.33;6.30;;;7.00;99.90;;;;;;4953710;28;20450;-57
2023/12/16 09:13:54;;;;;;;12.97;5.73;;;7.10;99.90;;;;;;4956676;28;20459;-57
2023/12/16 09:16:22;;;;;;;16.17;6.67;;;7.10;99.90;;;;;;4953704;28;21069;-57
2023/12/16 09:18:49;;;;;;;23.27;7.63;;;7.20;99.90;;;;;;4953962;28;20466;-57
2023/12/16 09:21:16;;;;;;;17.33;6.47;;;7.20;99.90;;;;;;4953794;28;20458;-56
2023/12/16 09:23:43;;;;;;;14.70;5.90;;;7.20;99.90;;;;;;4960129;28;20446;-56
2023/12/16 09:26:09;;;;;;;20.10;6.70;;;7.30;99.90;;;;;;4952945;28;20497;-57
2023/12/16 09:28:36;;;;;;;13.93;6.03;;;7.30;99.90;;;;;;4953448;28;21072;-56
2023/12/16 09:31:03;;;;;;;18.27;6.53;;;7.30;99.90;;;;;;4953865;28;20502;-56
2023/12/16 09:33:31;;;;;;;20.07;6.20;;;7.30;99.90;;;;;;4953596;28;20505;-56
2023/12/16 09:35:57;;;;;;;14.40;6.33;;;7.40;99.90;;;;;;4953195;28;20486;-56
2023/12/16 09:38:24;;;;;;;18.77;5.97;;;7.40;99.90;;;;;;4953887;28;20525;-56
2023/12/16 09:40:51;;;;;;;13.80;5.27;;;7.40;99.90;;;;;;4954753;28;20925;-56
2023/12/16 09:43:18;;;;;;;16.03;5.73;;;7.40;99.90;;;;;;4953550;28;20937;-56
2023/12/16 09:45:47;;;;;;;11.27;6.07;;;7.40;99.90;;;;;;4953316;28;20454;-56
2023/12/16 09:48:16;;;;;;;14.70;5.87;;;7.40;99.90;;;;;;4953341;29;20478;-56
2023/12/16 09:50:45;;;;;;;9.40;5.37;;;7.50;99.90;;;;;;4953285;28;20450;-56
2023/12/16 09:53:12;;;;;;;13.57;5.40;;;7.50;99.90;;;;;;4953256;28;20446;-56
2023/12/16 09:55:40;;;;;;;11.37;4.50;;;7.50;99.90;;;;;;4953144;28;20486;-56
2023/12/16 09:58:08;;;;;;;15.40;5.30;;;7.60;95.20;;;;;;4953630;28;20993;-56
2023/12/16 10:00:38;;;;;;;12.43;5.47;;;7.60;25.50;;;;;;4953769;28;20450;-56
2023/12/16 10:03:05;;;;;;;13.00;4.50;;;7.70;32.60;;;;;;4953724;28;20450;-56
2023/12/16 10:05:35;;;;;;;36.23;5.30;;;8.10;43.40;;;;;;4950392;28;20450;-55
2023/12/16 10:08:04;;;;;;;14.83;4.70;;;8.90;68.70;;;;;;4953038;28;20822;-55
2023/12/16 10:10:31;;;;;;;12.00;4.97;;;8.80;84.30;;;;;;4953428;28;20768;-56
2023/12/16 10:13:02;;;;;;;13.77;5.20;;;9.00;85.60;;;;;;4953305;28;20501;-56
2023/12/16 10:15:30;;;;;;;14.13;5.33;;;9.40;94.60;;;;;;4953476;28;20818;-56
2023/12/16 10:17:56;;;;;;;14.60;4.70;;;10.20;99.90;;;;;;4953066;28;20553;-56
2023/12/16 10:20:23;;;;;;;11.47;4.70;;;10.00;99.90;;;;;;4960605;28;21152;-56
2023/12/16 10:22:50;;;;;;;10.57;4.57;;;9.50;99.90;;;;;;4952923;28;20446;-56
2023/12/16 10:25:18;;;;;;;13.80;4.57;;;9.00;96.00;;;;;;4953149;28;20859;-56
2023/12/16 10:27:45;;;;;;;14.67;5.40;;;8.60;87.00;;;;;;4952834;28;20533;-56
2023/12/16 10:30:12;;;;;;;14.50;3.93;;;8.50;75.00;;;;;;4953152;28;20453;-56
2023/12/16 10:32:40;;;;;;;8.43;3.53;;;8.40;76.00;;;;;;4953766;28;20457;-56
2023/12/16 10:35:07;;;;;;;7.20;4.57;;;8.70;84.80;;;;;;4953520;28;20443;-57
2023/12/16 10:37:34;;;;;;;12.47;4.13;;;9.10;99.70;;;;;;4955875;28;20910;-58
2023/12/16 10:40:01;;;;;;;13.30;4.67;;;9.30;94.00;;;;;;4956755;29;20450;-56
2023/12/16 10:42:29;;;;;;;19.93;5.47;;;9.30;94.10;;;;;;4953485;28;20446;-56
2023/12/16 10:44:56;;;;;;;10.67;4.87;;;9.10;99.00;;;;;;4958559;28;20541;-56
2023/12/16 10:47:28;;;;;;;11.50;4.00;;;9.20;96.20;;;;;;4956856;28;20442;-57
2023/12/16 10:49:59;;;;;;;15.90;4.90;;;9.40;99.90;;;;;;4951559;28;20445;-56
2023/12/16 10:52:32;;;;;;;20.53;5.47;;;9.10;98.30;;;;;;4952923;28;20447;-57
2023/12/16 10:55:03;;;;;;;9.87;4.17;;;9.40;95.30;;;;;;4956245;28;20443;-56
2023/12/16 10:57:47;;;;;;;9.87;4.30;;;9.70;99.90;;;;;;4955765;28;20490;-55
2023/12/16 11:00:20;;;;;;;9.90;4.00;;;9.40;99.90;;;;;;4956115;28;20967;-56
2023/12/16 11:02:56;;;;;;;12.10;4.67;;;9.00;95.20;;;;;;4956151;28;20443;-56
2023/12/16 11:05:27;;;;;;;17.23;4.87;;;8.90;99.30;;;;;;4957579;28;20454;-56
2023/12/16 11:07:57;;;;;;;11.20;3.93;;;8.80;92.80;;;;;;4953477;28;20852;-56
2023/12/16 11:10:24;;;;;;;17.27;4.50;;;9.00;89.10;;;;;;4956068;28;20447;-57
2023/12/16 11:12:53;;;;;;;20.60;5.40;;;9.00;89.00;;;;;;4955801;28;20870;-57
2023/12/16 11:15:21;;;;;;;11.27;4.53;;;9.00;93.90;;;;;;4956028;28;20443;-58
2023/12/16 11:17:54;;;;;;;12.50;4.00;;;8.90;91.20;;;;;;4955965;28;20573;-55
2023/12/16 11:20:23;;;;;;;23.17;4.23;;;8.90;88.60;;;;;;4955977;28;20823;-56
2023/12/16 11:22:51;;;;;;;12.40;3.77;;;9.00;85.90;;;;;;4957463;28;20984;-56
2023/12/16 11:25:19;;;;;;;14.60;4.67;;;8.80;80.90;;;;;;4955897;28;20540;-55
2023/12/16 11:27:47;;;;;;;20.27;4.90;;;8.80;89.80;;;;;;4955811;28;20466;-56
2023/12/16 11:30:16;;;;;;;13.23;4.13;;;8.80;91.80;;;;;;4956363;28;20868;-54
2023/12/16 11:32:45;;;;;;;12.53;5.27;;;8.80;84.10;;;;;;4955742;28;20446;-53
2023/12/16 11:35:12;;;;;;;13.90;4.27;;;8.70;84.90;;;;;;4955566;28;20453;-53
2023/12/16 11:37:43;;;;;;;13.53;4.07;;;8.60;85.00;;;;;;4955080;28;20482;-52
2023/12/16 11:40:40;;;;;;;9.20;3.73;;;8.60;81.30;;;;;;4957297;28;20539;-52
2023/12/16 11:43:07;;;;;;;19.83;4.50;;;8.50;78.90;;;;;;4950609;28;20442;-53
2023/12/16 11:45:39;;;;;;;13.70;4.97;;;8.40;83.50;;;;;;4955262;28;20521;-53
2023/12/16 11:48:06;;;;;;;15.43;4.47;;;8.50;76.70;;;;;;4954499;28;20960;-55
2023/12/16 11:50:34;;;;;;;11.30;3.67;;;8.60;73.00;;;;;;4955230;28;21012;-52
2023/12/16 11:53:01;;;;;;;12.47;4.30;;;8.50;80.70;;;;;;4958024;28;20452;-54
2023/12/16 11:55:28;;;;;;;10.17;3.70;;;8.60;79.30;;;;;;4956728;28;20443;-53
2023/12/16 11:57:54;;;;;;;13.90;4.67;;;8.60;80.40;;;;;;4951992;28;20517;-52
2023/12/16 12:00:22;;;;;;;14.13;4.67;;;8.60;78.80;;;;;;4955128;28;20509;-52
2023/12/16 12:02:51;;;;;;;13.10;4.03;;;8.50;79.90;;;;;;4955281;28;20455;-53
2023/12/16 12:05:17;;;;;;;15.97;3.70;;;8.50;70.00;;;;;;4953533;28;20447;-54
2023/12/16 12:07:44;;;;;;;11.60;3.83;;;8.50;81.30;;;;;;4953523;28;21007;-54
2023/12/16 12:10:11;;;;;;;10.80;3.63;;;8.50;70.90;;;;;;4954834;28;20450;-53
2023/12/16 12:12:37;;;;;;;12.20;4.30;;;8.40;75.10;;;;;;4956752;28;20449;-54
2023/12/16 12:15:05;;;;;;;13.30;4.03;;;8.40;76.50;;;;;;4954691;28;20549;-54
2023/12/16 12:17:31;;;;;;;7.93;3.53;;;8.30;71.40;;;;;;4954817;28;20489;-52
2023/12/16 12:20:04;;;;;;;18.13;4.80;;;8.30;72.50;;;;;;4955025;28;20568;-52
2023/12/16 12:22:31;;;;;;;9.87;4.20;;;8.30;71.70;;;;;;4954882;28;20482;-53
2023/12/16 12:24:58;;;;;;;12.37;4.27;;;8.30;69.20;;;;;;4954851;28;20524;-52
2023/12/16 12:27:25;;;;;;;14.60;4.17;;;8.30;67.50;;;;;;4954402;28;20522;-54
2023/12/16 12:29:53;;;;;;;11.33;4.00;;;8.30;67.30;;;;;;4956297;28;20455;-52
2023/12/16 12:32:20;;;;;;;18.37;5.47;;;8.30;68.90;;;;;;4954792;29;20449;-53
2023/12/16 12:35:01;;;;;;;19.97;5.17;;;8.30;68.10;;;;;;4954426;28;20451;-53
2023/12/16 12:37:34;;;;;;;14.63;4.57;;;8.20;73.10;;;;;;4954315;28;20915;-54
2023/12/16 12:40:01;;;;;;;11.80;4.03;;;8.20;72.70;;;;;;4954370;28;20497;-53
2023/12/16 12:42:28;;;;;;;11.90;3.90;;;8.20;73.20;;;;;;4954570;28;20525;-54
2023/12/16 12:44:56;;;;;;;13.03;4.30;;;8.20;69.20;;;;;;4954470;28;20494;-53